sensor_id;sensor_type;location;lat;lon;timestamp;temperature;humidity
44705;DHT22;30431;48.520;9.046;2023-09-19T00:00:50;16.60;99.90
44705;DHT22;30431;48.520;9.046;2023-09-19T00:03:22;16.60;99.90
44705;DHT22;30431;48.520;9.046;2023-09-19T00:05:50;16.60;99.90
44705;DHT22;30431;48.520;9.046;2023-09-19T00:08:19;16.60;99.90
44705;DHT22;30431;48.520;9.046;2023-09-19T00:10:54;16.60;99.90
44705;DHT22;30431;48.520;9.046;2023-09-19T00:13:21;16.60;99.90
44705;DHT22;30431;48.520;9.046;2023-09-19T00:15:48;16.60;99.90
44705;DHT22;30431;48.520;9.046;2023-09-19T00:18:20;16.50;99.90
44705;DHT22;30431;48.520;9.046;2023-09-19T00:20:58;16.50;99.90
44705;DHT22;30431;48.520;9.046;2023-09-19T00:23:25;16.60;99.90
44705;DHT22;30431;48.520;9.046;2023-09-19T00:25:52;16.60;99.90
44705;DHT22;30431;48.520;9.046;2023-09-19T00:28:24;16.60;99.90
44705;DHT22;30431;48.520;9.046;2023-09-19T00:30:51;16.50;99.90
44705;DHT22;30431;48.520;9.046;2023-09-19T00:33:19;16.50;99.90
44705;DHT22;30431;48.520;9.046;2023-09-19T00:35:51;16.60;99.90
44705;DHT22;30431;48.520;9.046;2023-09-19T00:38:19;16.60;99.90
44705;DHT22;30431;48.520;9.046;2023-09-19T00:40:49;16.60;99.90
44705;DHT22;30431;48.520;9.046;2023-09-19T00:43:21;16.60;99.90
44705;DHT22;30431;48.520;9.046;2023-09-19T00:45:55;16.60;99.90
44705;DHT22;30431;48.520;9.046;2023-09-19T00:48:22;16.60;99.90
44705;DHT22;30431;48.520;9.046;2023-09-19T00:50:53;16.60;99.90
44705;DHT22;30431;48.520;9.046;2023-09-19T00:53:22;16.60;99.90
44705;DHT22;30431;48.520;9.046;2023-09-19T00:55:53;16.60;99.90
44705;DHT22;30431;48.520;9.046;2023-09-19T00:58:22;16.60;99.90
44705;DHT22;30431;48.520;9.046;2023-09-19T01:00:52;16.50;99.90
44705;DHT22;30431;48.520;9.046;2023-09-19T01:03:20;16.50;99.90
44705;DHT22;30431;48.520;9.046;2023-09-19T01:05:50;16.50;99.90
44705;DHT22;30431;48.520;9.046;2023-09-19T01:08:18;16.50;99.90
44705;DHT22;30431;48.520;9.046;2023-09-19T01:10:59;16.50;99.90
44705;DHT22;30431;48.520;9.046;2023-09-19T01:13:37;16.40;99.90
44705;DHT22;30431;48.520;9.046;2023-09-19T01:16:19;16.40;99.90
44705;DHT22;30431;48.520;9.046;2023-09-19T01:19:07;16.40;99.90
44705;DHT22;30431;48.520;9.046;2023-09-19T01:30:42;16.20;99.90
44705;DHT22;30431;48.520;9.046;2023-09-19T01:33:15;16.20;99.90
44705;DHT22;30431;48.520;9.046;2023-09-19T01:35:42;16.20;99.90
44705;DHT22;30431;48.520;9.046;2023-09-19T01:38:09;16.20;99.90
44705;DHT22;30431;48.520;9.046;2023-09-19T01:40:42;16.30;99.90
44705;DHT22;30431;48.520;9.046;2023-09-19T01:43:42;16.30;99.90
44705;DHT22;30431;48.520;9.046;2023-09-19T01:46:17;16.30;99.90
44705;DHT22;30431;48.520;9.046;2023-09-19T01:49:27;16.30;99.90
44705;DHT22;30431;48.520;9.046;2023-09-19T01:52:25;16.30;99.90
44705;DHT22;30431;48.520;9.046;2023-09-19T01:55:02;16.20;99.90
44705;DHT22;30431;48.520;9.046;2023-09-19T01:57:42;16.20;99.90
44705;DHT22;30431;48.520;9.046;2023-09-19T02:00:18;16.10;99.90
44705;DHT22;30431;48.520;9.046;2023-09-19T02:02:47;16.00;99.90
44705;DHT22;30431;48.520;9.046;2023-09-19T02:05:22;16.00;99.90
44705;DHT22;30431;48.520;9.046;2023-09-19T02:07:54;15.90;99.90
44705;DHT22;30431;48.520;9.046;2023-09-19T02:10:27;15.80;99.90
44705;DHT22;30431;48.520;9.046;2023-09-19T02:12:58;15.70;99.90
44705;DHT22;30431;48.520;9.046;2023-09-19T02:15:27;15.60;99.90
44705;DHT22;30431;48.520;9.046;2023-09-19T02:17:54;15.60;99.90
44705;DHT22;30431;48.520;9.046;2023-09-19T02:20:23;15.50;99.90
44705;DHT22;30431;48.520;9.046;2023-09-19T02:22:50;15.40;99.90
44705;DHT22;30431;48.520;9.046;2023-09-19T02:25:18;15.40;99.90
44705;DHT22;30431;48.520;9.046;2023-09-19T02:27:49;15.30;99.90
44705;DHT22;30431;48.520;9.046;2023-09-19T02:30:16;15.30;99.90
44705;DHT22;30431;48.520;9.046;2023-09-19T02:32:45;15.20;99.90
44705;DHT22;30431;48.520;9.046;2023-09-19T02:35:14;15.20;99.90
44705;DHT22;30431;48.520;9.046;2023-09-19T02:37:42;15.20;99.90
44705;DHT22;30431;48.520;9.046;2023-09-19T02:40:12;15.10;99.90
44705;DHT22;30431;48.520;9.046;2023-09-19T02:43:09;15.10;99.90
44705;DHT22;30431;48.520;9.046;2023-09-19T02:45:36;15.10;99.90
44705;DHT22;30431;48.520;9.046;2023-09-19T02:48:04;15.00;99.90
44705;DHT22;30431;48.520;9.046;2023-09-19T02:50:31;15.10;99.90
44705;DHT22;30431;48.520;9.046;2023-09-19T02:52:58;15.10;99.90
44705;DHT22;30431;48.520;9.046;2023-09-19T02:55:26;15.10;99.90
44705;DHT22;30431;48.520;9.046;2023-09-19T02:57:56;15.10;99.90
44705;DHT22;30431;48.520;9.046;2023-09-19T03:00:26;15.20;99.90
44705;DHT22;30431;48.520;9.046;2023-09-19T03:02:55;15.20;99.90
44705;DHT22;30431;48.520;9.046;2023-09-19T03:05:25;15.30;99.90
44705;DHT22;30431;48.520;9.046;2023-09-19T03:07:55;15.50;99.90
44705;DHT22;30431;48.520;9.046;2023-09-19T03:10:23;15.60;99.90
44705;DHT22;30431;48.520;9.046;2023-09-19T03:12:52;15.70;99.90
44705;DHT22;30431;48.520;9.046;2023-09-19T03:15:21;15.70;99.90
44705;DHT22;30431;48.520;9.046;2023-09-19T03:17:53;15.80;99.90
44705;DHT22;30431;48.520;9.046;2023-09-19T03:20:23;15.90;99.90
44705;DHT22;30431;48.520;9.046;2023-09-19T03:22:50;15.90;99.90
44705;DHT22;30431;48.520;9.046;2023-09-19T03:25:21;15.90;99.90
44705;DHT22;30431;48.520;9.046;2023-09-19T03:27:51;15.90;99.90
44705;DHT22;30431;48.520;9.046;2023-09-19T03:30:19;16.00;99.90
44705;DHT22;30431;48.520;9.046;2023-09-19T03:32:49;16.00;99.90
44705;DHT22;30431;48.520;9.046;2023-09-19T03:35:20;16.00;99.90
44705;DHT22;30431;48.520;9.046;2023-09-19T03:37:47;16.10;99.90
44705;DHT22;30431;48.520;9.046;2023-09-19T03:40:23;16.20;99.90
44705;DHT22;30431;48.520;9.046;2023-09-19T03:42:53;16.20;99.90
44705;DHT22;30431;48.520;9.046;2023-09-19T03:45:22;16.30;99.90
44705;DHT22;30431;48.520;9.046;2023-09-19T03:47:52;16.30;99.90
44705;DHT22;30431;48.520;9.046;2023-09-19T03:50:22;16.30;99.90
44705;DHT22;30431;48.520;9.046;2023-09-19T03:52:56;16.40;99.90
44705;DHT22;30431;48.520;9.046;2023-09-19T03:55:26;16.40;99.90
44705;DHT22;30431;48.520;9.046;2023-09-19T03:57:57;16.40;99.90
44705;DHT22;30431;48.520;9.046;2023-09-19T04:00:24;16.40;99.90
44705;DHT22;30431;48.520;9.046;2023-09-19T04:02:53;16.50;99.90
44705;DHT22;30431;48.520;9.046;2023-09-19T04:05:23;16.50;99.90
44705;DHT22;30431;48.520;9.046;2023-09-19T04:07:51;16.50;99.90
44705;DHT22;30431;48.520;9.046;2023-09-19T04:10:19;16.50;99.90
44705;DHT22;30431;48.520;9.046;2023-09-19T04:12:54;16.50;99.90
44705;DHT22;30431;48.520;9.046;2023-09-19T04:15:24;16.40;99.90
44705;DHT22;30431;48.520;9.046;2023-09-19T04:17:58;16.40;99.90
44705;DHT22;30431;48.520;9.046;2023-09-19T04:20:25;16.30;99.90
44705;DHT22;30431;48.520;9.046;2023-09-19T04:22:56;16.20;99.90
44705;DHT22;30431;48.520;9.046;2023-09-19T04:25:23;16.10;99.90
44705;DHT22;30431;48.520;9.046;2023-09-19T04:27:49;16.00;99.90
44705;DHT22;30431;48.520;9.046;2023-09-19T04:30:19;15.90;99.90
44705;DHT22;30431;48.520;9.046;2023-09-19T04:32:48;15.80;99.90
44705;DHT22;30431;48.520;9.046;2023-09-19T04:35:20;15.70;99.90
44705;DHT22;30431;48.520;9.046;2023-09-19T04:37:48;15.70;99.90
44705;DHT22;30431;48.520;9.046;2023-09-19T04:40:15;15.70;99.90
44705;DHT22;30431;48.520;9.046;2023-09-19T04:42:45;15.60;99.90
44705;DHT22;30431;48.520;9.046;2023-09-19T04:45:12;15.60;99.90
44705;DHT22;30431;48.520;9.046;2023-09-19T04:47:39;15.60;99.90
44705;DHT22;30431;48.520;9.046;2023-09-19T04:50:09;15.60;99.90
44705;DHT22;30431;48.520;9.046;2023-09-19T04:52:44;15.60;99.90
44705;DHT22;30431;48.520;9.046;2023-09-19T04:55:15;15.60;99.90
44705;DHT22;30431;48.520;9.046;2023-09-19T04:57:47;15.70;99.90
44705;DHT22;30431;48.520;9.046;2023-09-19T05:00:16;15.70;99.90
44705;DHT22;30431;48.520;9.046;2023-09-19T05:02:49;15.70;99.90
44705;DHT22;30431;48.520;9.046;2023-09-19T05:05:16;15.80;99.90
44705;DHT22;30431;48.520;9.046;2023-09-19T05:07:47;15.80;99.90
44705;DHT22;30431;48.520;9.046;2023-09-19T05:10:14;15.90;99.90
44705;DHT22;30431;48.520;9.046;2023-09-19T05:12:46;16.00;99.90
44705;DHT22;30431;48.520;9.046;2023-09-19T05:15:18;16.00;99.90
44705;DHT22;30431;48.520;9.046;2023-09-19T05:17:52;16.00;99.90
44705;DHT22;30431;48.520;9.046;2023-09-19T05:20:24;16.10;99.90
44705;DHT22;30431;48.520;9.046;2023-09-19T05:23:03;16.20;99.90
44705;DHT22;30431;48.520;9.046;2023-09-19T05:25:35;16.20;99.90
44705;DHT22;30431;48.520;9.046;2023-09-19T05:28:07;16.30;99.90
44705;DHT22;30431;48.520;9.046;2023-09-19T05:30:35;16.30;99.90
44705;DHT22;30431;48.520;9.046;2023-09-19T05:33:06;16.40;99.90
44705;DHT22;30431;48.520;9.046;2023-09-19T05:35:34;16.40;99.90
44705;DHT22;30431;48.520;9.046;2023-09-19T05:38:06;16.50;99.90
44705;DHT22;30431;48.520;9.046;2023-09-19T05:40:36;16.50;99.90
44705;DHT22;30431;48.520;9.046;2023-09-19T05:43:06;16.50;99.90
44705;DHT22;30431;48.520;9.046;2023-09-19T05:45:33;16.50;99.90
44705;DHT22;30431;48.520;9.046;2023-09-19T05:48:09;16.50;99.90
44705;DHT22;30431;48.520;9.046;2023-09-19T05:50:38;16.60;99.90
44705;DHT22;30431;48.520;9.046;2023-09-19T05:53:05;16.60;99.90
44705;DHT22;30431;48.520;9.046;2023-09-19T05:55:35;16.70;99.90
44705;DHT22;30431;48.520;9.046;2023-09-19T05:58:02;16.60;99.90
44705;DHT22;30431;48.520;9.046;2023-09-19T06:00:33;16.50;99.90
44705;DHT22;30431;48.520;9.046;2023-09-19T06:03:04;16.50;99.90
44705;DHT22;30431;48.520;9.046;2023-09-19T06:05:31;16.70;99.90
44705;DHT22;30431;48.520;9.046;2023-09-19T06:08:03;16.80;99.90
44705;DHT22;30431;48.520;9.046;2023-09-19T06:10:35;16.90;99.90
44705;DHT22;30431;48.520;9.046;2023-09-19T06:13:03;17.00;99.90
44705;DHT22;30431;48.520;9.046;2023-09-19T06:15:36;17.00;99.90
44705;DHT22;30431;48.520;9.046;2023-09-19T06:18:11;17.00;99.90
44705;DHT22;30431;48.520;9.046;2023-09-19T06:20:42;16.90;99.90
44705;DHT22;30431;48.520;9.046;2023-09-19T06:23:12;16.90;99.90
44705;DHT22;30431;48.520;9.046;2023-09-19T06:25:38;16.90;99.90
44705;DHT22;30431;48.520;9.046;2023-09-19T06:28:05;16.90;99.90
44705;DHT22;30431;48.520;9.046;2023-09-19T06:30:34;16.90;99.90
44705;DHT22;30431;48.520;9.046;2023-09-19T06:33:02;16.90;99.90
44705;DHT22;30431;48.520;9.046;2023-09-19T06:35:35;17.00;99.90
44705;DHT22;30431;48.520;9.046;2023-09-19T06:38:03;17.00;99.90
44705;DHT22;30431;48.520;9.046;2023-09-19T06:40:30;17.00;99.90
44705;DHT22;30431;48.520;9.046;2023-09-19T06:43:00;17.10;99.90
44705;DHT22;30431;48.520;9.046;2023-09-19T06:45:29;17.20;99.90
44705;DHT22;30431;48.520;9.046;2023-09-19T06:47:58;17.40;99.90
44705;DHT22;30431;48.520;9.046;2023-09-19T06:50:31;17.40;99.90
44705;DHT22;30431;48.520;9.046;2023-09-19T06:53:00;17.70;99.90
44705;DHT22;30431;48.520;9.046;2023-09-19T06:55:27;17.90;99.90
44705;DHT22;30431;48.520;9.046;2023-09-19T06:57:55;17.90;99.90
44705;DHT22;30431;48.520;9.046;2023-09-19T07:00:23;18.00;99.90
44705;DHT22;30431;48.520;9.046;2023-09-19T07:05:31;18.10;99.90
44705;DHT22;30431;48.520;9.046;2023-09-19T07:08:07;18.30;99.90
44705;DHT22;30431;48.520;9.046;2023-09-19T07:10:38;18.10;99.80
44705;DHT22;30431;48.520;9.046;2023-09-19T07:13:08;18.00;99.90
44705;DHT22;30431;48.520;9.046;2023-09-19T07:15:46;18.10;99.90
44705;DHT22;30431;48.520;9.046;2023-09-19T07:18:15;18.10;99.90
44705;DHT22;30431;48.520;9.046;2023-09-19T07:20:44;18.10;99.80
44705;DHT22;30431;48.520;9.046;2023-09-19T07:23:21;18.20;99.30
44705;DHT22;30431;48.520;9.046;2023-09-19T07:25:50;18.20;99.40
44705;DHT22;30431;48.520;9.046;2023-09-19T07:28:20;18.20;98.80
44705;DHT22;30431;48.520;9.046;2023-09-19T07:30:47;18.10;99.10
44705;DHT22;30431;48.520;9.046;2023-09-19T07:33:14;18.10;99.30
44705;DHT22;30431;48.520;9.046;2023-09-19T07:35:47;18.30;99.10
44705;DHT22;30431;48.520;9.046;2023-09-19T07:38:14;18.50;98.50
44705;DHT22;30431;48.520;9.046;2023-09-19T07:40:41;18.70;98.20
44705;DHT22;30431;48.520;9.046;2023-09-19T07:43:08;18.80;97.70
44705;DHT22;30431;48.520;9.046;2023-09-19T07:45:35;18.80;97.20
44705;DHT22;30431;48.520;9.046;2023-09-19T07:48:07;19.00;97.00
44705;DHT22;30431;48.520;9.046;2023-09-19T07:50:41;19.00;96.60
44705;DHT22;30431;48.520;9.046;2023-09-19T07:53:10;18.90;96.30
44705;DHT22;30431;48.520;9.046;2023-09-19T07:55:39;18.90;96.30
44705;DHT22;30431;48.520;9.046;2023-09-19T07:58:08;18.70;96.50
44705;DHT22;30431;48.520;9.046;2023-09-19T08:00:41;18.60;97.10
44705;DHT22;30431;48.520;9.046;2023-09-19T08:03:11;18.50;96.70
44705;DHT22;30431;48.520;9.046;2023-09-19T08:05:44;18.40;96.00
44705;DHT22;30431;48.520;9.046;2023-09-19T08:08:15;18.30;96.10
44705;DHT22;30431;48.520;9.046;2023-09-19T08:10:42;18.50;96.00
44705;DHT22;30431;48.520;9.046;2023-09-19T08:13:12;18.70;95.30
44705;DHT22;30431;48.520;9.046;2023-09-19T08:15:47;19.00;94.70
44705;DHT22;30431;48.520;9.046;2023-09-19T08:18:15;19.10;94.70
44705;DHT22;30431;48.520;9.046;2023-09-19T08:20:43;19.30;94.00
44705;DHT22;30431;48.520;9.046;2023-09-19T08:23:11;19.40;93.90
44705;DHT22;30431;48.520;9.046;2023-09-19T08:25:38;19.70;93.20
44705;DHT22;30431;48.520;9.046;2023-09-19T08:28:06;19.90;93.10
44705;DHT22;30431;48.520;9.046;2023-09-19T08:30:35;20.10;91.70
44705;DHT22;30431;48.520;9.046;2023-09-19T08:33:04;20.30;91.60
44705;DHT22;30431;48.520;9.046;2023-09-19T08:35:31;20.30;91.50
44705;DHT22;30431;48.520;9.046;2023-09-19T08:38:01;20.10;91.00
44705;DHT22;30431;48.520;9.046;2023-09-19T08:40:31;19.80;91.20
44705;DHT22;30431;48.520;9.046;2023-09-19T08:43:00;19.70;91.30
44705;DHT22;30431;48.520;9.046;2023-09-19T08:45:30;19.60;91.40
44705;DHT22;30431;48.520;9.046;2023-09-19T08:48:28;19.50;91.50
44705;DHT22;30431;48.520;9.046;2023-09-19T08:51:03;19.80;91.70
44705;DHT22;30431;48.520;9.046;2023-09-19T08:53:49;19.90;91.10
44705;DHT22;30431;48.520;9.046;2023-09-19T08:56:18;19.70;91.10
44705;DHT22;30431;48.520;9.046;2023-09-19T08:58:51;19.80;91.70
44705;DHT22;30431;48.520;9.046;2023-09-19T09:01:20;20.00;90.70
44705;DHT22;30431;48.520;9.046;2023-09-19T09:03:55;20.10;90.20
44705;DHT22;30431;48.520;9.046;2023-09-19T09:06:24;19.90;90.10
44705;DHT22;30431;48.520;9.046;2023-09-19T09:08:52;19.90;90.20
44705;DHT22;30431;48.520;9.046;2023-09-19T09:11:21;19.90;90.40
44705;DHT22;30431;48.520;9.046;2023-09-19T09:13:51;20.00;90.40
44705;DHT22;30431;48.520;9.046;2023-09-19T09:16:21;20.10;88.70
44705;DHT22;30431;48.520;9.046;2023-09-19T09:18:50;20.20;89.60
44705;DHT22;30431;48.520;9.046;2023-09-19T09:21:25;20.30;89.50
44705;DHT22;30431;48.520;9.046;2023-09-19T09:23:52;20.30;88.10
44705;DHT22;30431;48.520;9.046;2023-09-19T09:26:45;20.20;86.60
44705;DHT22;30431;48.520;9.046;2023-09-19T09:29:14;20.20;86.90
44705;DHT22;30431;48.520;9.046;2023-09-19T09:31:47;20.50;85.60
44705;DHT22;30431;48.520;9.046;2023-09-19T09:34:16;20.60;85.30
44705;DHT22;30431;48.520;9.046;2023-09-19T09:36:48;20.80;84.80
44705;DHT22;30431;48.520;9.046;2023-09-19T09:39:15;21.00;82.90
44705;DHT22;30431;48.520;9.046;2023-09-19T09:41:58;21.00;81.40
44705;DHT22;30431;48.520;9.046;2023-09-19T09:44:28;21.10;82.00
44705;DHT22;30431;48.520;9.046;2023-09-19T09:46:58;21.10;80.70
44705;DHT22;30431;48.520;9.046;2023-09-19T09:49:47;21.00;80.00
44705;DHT22;30431;48.520;9.046;2023-09-19T09:52:23;21.30;80.80
44705;DHT22;30431;48.520;9.046;2023-09-19T09:55:04;21.40;78.60
44705;DHT22;30431;48.520;9.046;2023-09-19T09:57:35;21.60;78.20
44705;DHT22;30431;48.520;9.046;2023-09-19T10:00:05;21.80;77.30
44705;DHT22;30431;48.520;9.046;2023-09-19T10:02:38;21.90;77.90
44705;DHT22;30431;48.520;9.046;2023-09-19T10:05:18;21.80;74.80
44705;DHT22;30431;48.520;9.046;2023-09-19T10:07:52;21.70;74.30
44705;DHT22;30431;48.520;9.046;2023-09-19T10:10:31;21.10;75.30
44705;DHT22;30431;48.520;9.046;2023-09-19T10:13:20;21.10;76.70
44705;DHT22;30431;48.520;9.046;2023-09-19T10:15:55;21.00;75.80
44705;DHT22;30431;48.520;9.046;2023-09-19T10:18:27;21.00;77.20
44705;DHT22;30431;48.520;9.046;2023-09-19T10:20:56;21.10;76.50
44705;DHT22;30431;48.520;9.046;2023-09-19T10:23:25;21.20;75.80
44705;DHT22;30431;48.520;9.046;2023-09-19T10:25:59;21.10;75.50
44705;DHT22;30431;48.520;9.046;2023-09-19T10:28:28;21.10;73.50
44705;DHT22;30431;48.520;9.046;2023-09-19T10:30:57;21.00;73.20
44705;DHT22;30431;48.520;9.046;2023-09-19T10:33:35;21.10;74.20
44705;DHT22;30431;48.520;9.046;2023-09-19T10:36:05;21.30;73.90
44705;DHT22;30431;48.520;9.046;2023-09-19T10:38:37;21.00;74.60
44705;DHT22;30431;48.520;9.046;2023-09-19T10:41:10;21.00;75.40
44705;DHT22;30431;48.520;9.046;2023-09-19T10:43:45;21.10;75.70
44705;DHT22;30431;48.520;9.046;2023-09-19T10:46:14;21.10;76.70
44705;DHT22;30431;48.520;9.046;2023-09-19T10:48:42;21.00;75.80
44705;DHT22;30431;48.520;9.046;2023-09-19T10:51:22;21.10;75.80
44705;DHT22;30431;48.520;9.046;2023-09-19T10:54:05;21.00;76.40
44705;DHT22;30431;48.520;9.046;2023-09-19T10:56:36;21.00;75.90
44705;DHT22;30431;48.520;9.046;2023-09-19T10:59:13;20.90;75.70
44705;DHT22;30431;48.520;9.046;2023-09-19T11:01:52;20.70;75.50
44705;DHT22;30431;48.520;9.046;2023-09-19T11:07:12;20.60;76.10
44705;DHT22;30431;48.520;9.046;2023-09-19T11:10:10;20.90;74.80
44705;DHT22;30431;48.520;9.046;2023-09-19T11:12:57;21.30;74.60
44705;DHT22;30431;48.520;9.046;2023-09-19T11:26:44;21.80;70.10
44705;DHT22;30431;48.520;9.046;2023-09-19T11:31:52;22.10;69.60
44705;DHT22;30431;48.520;9.046;2023-09-19T11:34:42;22.50;69.70
44705;DHT22;30431;48.520;9.046;2023-09-19T11:42:48;23.40;67.80
44705;DHT22;30431;48.520;9.046;2023-09-19T11:48:15;22.90;67.70
44705;DHT22;30431;48.520;9.046;2023-09-19T11:50:43;23.00;68.70
44705;DHT22;30431;48.520;9.046;2023-09-19T11:53:14;22.90;68.30
44705;DHT22;30431;48.520;9.046;2023-09-19T11:55:45;22.70;68.20
44705;DHT22;30431;48.520;9.046;2023-09-19T11:58:15;22.50;69.90
44705;DHT22;30431;48.520;9.046;2023-09-19T12:00:45;22.30;70.10
44705;DHT22;30431;48.520;9.046;2023-09-19T12:03:13;22.50;70.40
44705;DHT22;30431;48.520;9.046;2023-09-19T12:05:42;22.60;69.10
44705;DHT22;30431;48.520;9.046;2023-09-19T12:08:15;22.60;68.30
44705;DHT22;30431;48.520;9.046;2023-09-19T12:10:50;22.50;68.20
44705;DHT22;30431;48.520;9.046;2023-09-19T12:13:25;22.20;66.90
44705;DHT22;30431;48.520;9.046;2023-09-19T12:15:55;22.10;67.90
44705;DHT22;30431;48.520;9.046;2023-09-19T12:18:29;22.00;68.80
44705;DHT22;30431;48.520;9.046;2023-09-19T12:21:00;21.90;68.60
44705;DHT22;30431;48.520;9.046;2023-09-19T12:23:29;21.90;70.20
44705;DHT22;30431;48.520;9.046;2023-09-19T12:25:56;21.90;69.40
44705;DHT22;30431;48.520;9.046;2023-09-19T12:28:27;21.80;69.60
44705;DHT22;30431;48.520;9.046;2023-09-19T12:30:55;21.90;70.10
44705;DHT22;30431;48.520;9.046;2023-09-19T12:33:22;21.80;70.40
44705;DHT22;30431;48.520;9.046;2023-09-19T12:35:54;22.00;70.20
44705;DHT22;30431;48.520;9.046;2023-09-19T12:40:57;22.00;70.00
44705;DHT22;30431;48.520;9.046;2023-09-19T12:43:32;22.10;71.90
44705;DHT22;30431;48.520;9.046;2023-09-19T12:46:00;22.20;69.70
44705;DHT22;30431;48.520;9.046;2023-09-19T12:48:27;22.30;68.20
44705;DHT22;30431;48.520;9.046;2023-09-19T12:51:07;22.10;69.40
44705;DHT22;30431;48.520;9.046;2023-09-19T12:53:41;22.20;70.50
44705;DHT22;30431;48.520;9.046;2023-09-19T12:56:14;22.20;72.00
44705;DHT22;30431;48.520;9.046;2023-09-19T12:58:57;22.10;71.10
44705;DHT22;30431;48.520;9.046;2023-09-19T13:01:30;21.60;71.30
44705;DHT22;30431;48.520;9.046;2023-09-19T13:04:19;21.40;72.10
44705;DHT22;30431;48.520;9.046;2023-09-19T13:06:53;21.20;73.00
44705;DHT22;30431;48.520;9.046;2023-09-19T13:09:22;21.30;75.00
44705;DHT22;30431;48.520;9.046;2023-09-19T13:11:55;21.50;73.80
44705;DHT22;30431;48.520;9.046;2023-09-19T13:14:23;21.50;72.90
44705;DHT22;30431;48.520;9.046;2023-09-19T13:17:02;21.50;73.30
44705;DHT22;30431;48.520;9.046;2023-09-19T13:19:50;21.50;71.90
44705;DHT22;30431;48.520;9.046;2023-09-19T13:25:13;21.50;69.90
44705;DHT22;30431;48.520;9.046;2023-09-19T13:30:12;21.80;71.50
44705;DHT22;30431;48.520;9.046;2023-09-19T13:32:40;22.00;71.10
44705;DHT22;30431;48.520;9.046;2023-09-19T13:35:09;22.10;71.00
44705;DHT22;30431;48.520;9.046;2023-09-19T13:37:38;22.10;71.40
44705;DHT22;30431;48.520;9.046;2023-09-19T13:40:12;22.10;70.80
44705;DHT22;30431;48.520;9.046;2023-09-19T13:42:39;22.10;71.60
44705;DHT22;30431;48.520;9.046;2023-09-19T13:45:07;22.10;71.10
44705;DHT22;30431;48.520;9.046;2023-09-19T13:47:44;22.00;71.00
44705;DHT22;30431;48.520;9.046;2023-09-19T13:50:11;22.00;70.50
44705;DHT22;30431;48.520;9.046;2023-09-19T13:52:38;21.70;70.50
44705;DHT22;30431;48.520;9.046;2023-09-19T13:55:05;21.70;70.10
44705;DHT22;30431;48.520;9.046;2023-09-19T13:57:33;21.70;70.50
44705;DHT22;30431;48.520;9.046;2023-09-19T14:00:00;21.80;71.20
44705;DHT22;30431;48.520;9.046;2023-09-19T14:02:37;21.80;71.20
44705;DHT22;30431;48.520;9.046;2023-09-19T14:05:06;21.80;70.30
44705;DHT22;30431;48.520;9.046;2023-09-19T14:07:33;22.00;70.10
44705;DHT22;30431;48.520;9.046;2023-09-19T14:10:04;22.10;69.60
44705;DHT22;30431;48.520;9.046;2023-09-19T14:12:38;22.30;69.50
44705;DHT22;30431;48.520;9.046;2023-09-19T14:15:08;22.30;69.50
44705;DHT22;30431;48.520;9.046;2023-09-19T14:17:39;22.20;69.50
44705;DHT22;30431;48.520;9.046;2023-09-19T14:20:09;22.20;67.90
44705;DHT22;30431;48.520;9.046;2023-09-19T14:22:37;22.30;69.60
44705;DHT22;30431;48.520;9.046;2023-09-19T14:25:05;22.30;65.80
44705;DHT22;30431;48.520;9.046;2023-09-19T14:27:36;22.20;65.40
44705;DHT22;30431;48.520;9.046;2023-09-19T14:30:06;22.20;68.60
44705;DHT22;30431;48.520;9.046;2023-09-19T14:32:33;22.10;65.10
44705;DHT22;30431;48.520;9.046;2023-09-19T14:35:00;22.10;65.30
44705;DHT22;30431;48.520;9.046;2023-09-19T14:37:30;22.00;65.60
44705;DHT22;30431;48.520;9.046;2023-09-19T14:40:00;21.90;66.10
44705;DHT22;30431;48.520;9.046;2023-09-19T14:42:38;21.90;66.50
44705;DHT22;30431;48.520;9.046;2023-09-19T14:45:07;21.80;67.00
44705;DHT22;30431;48.520;9.046;2023-09-19T14:47:35;21.80;67.90
44705;DHT22;30431;48.520;9.046;2023-09-19T14:50:03;21.90;67.00
44705;DHT22;30431;48.520;9.046;2023-09-19T14:52:35;21.80;66.90
44705;DHT22;30431;48.520;9.046;2023-09-19T14:55:03;21.80;66.40
44705;DHT22;30431;48.520;9.046;2023-09-19T14:57:33;21.90;65.60
44705;DHT22;30431;48.520;9.046;2023-09-19T15:00:00;22.00;65.40
44705;DHT22;30431;48.520;9.046;2023-09-19T15:02:27;21.90;66.00
44705;DHT22;30431;48.520;9.046;2023-09-19T15:04:55;21.80;67.90
44705;DHT22;30431;48.520;9.046;2023-09-19T15:07:25;21.80;67.40
44705;DHT22;30431;48.520;9.046;2023-09-19T15:09:53;21.80;67.30
44705;DHT22;30431;48.520;9.046;2023-09-19T15:12:22;21.80;66.20
44705;DHT22;30431;48.520;9.046;2023-09-19T15:14:49;21.80;67.20
44705;DHT22;30431;48.520;9.046;2023-09-19T15:17:16;21.80;67.30
44705;DHT22;30431;48.520;9.046;2023-09-19T15:19:43;21.90;66.70
44705;DHT22;30431;48.520;9.046;2023-09-19T15:22:10;21.80;66.30
44705;DHT22;30431;48.520;9.046;2023-09-19T15:24:39;21.90;65.80
44705;DHT22;30431;48.520;9.046;2023-09-19T15:27:06;21.90;65.40
44705;DHT22;30431;48.520;9.046;2023-09-19T15:29:33;21.80;63.80
44705;DHT22;30431;48.520;9.046;2023-09-19T15:32:00;21.80;64.40
44705;DHT22;30431;48.520;9.046;2023-09-19T15:34:29;21.80;65.10
44705;DHT22;30431;48.520;9.046;2023-09-19T15:36:56;21.90;65.60
44705;DHT22;30431;48.520;9.046;2023-09-19T15:39:23;21.80;65.80
44705;DHT22;30431;48.520;9.046;2023-09-19T15:41:50;21.80;65.50
44705;DHT22;30431;48.520;9.046;2023-09-19T15:44:20;21.80;66.10
44705;DHT22;30431;48.520;9.046;2023-09-19T15:46:50;21.80;66.50
44705;DHT22;30431;48.520;9.046;2023-09-19T15:49:20;21.70;67.10
44705;DHT22;30431;48.520;9.046;2023-09-19T15:51:52;21.60;66.50
44705;DHT22;30431;48.520;9.046;2023-09-19T15:54:19;21.60;66.50
44705;DHT22;30431;48.520;9.046;2023-09-19T15:56:46;21.50;65.40
44705;DHT22;30431;48.520;9.046;2023-09-19T15:59:18;21.60;66.30
44705;DHT22;30431;48.520;9.046;2023-09-19T16:01:45;21.50;66.20
44705;DHT22;30431;48.520;9.046;2023-09-19T16:04:12;21.50;66.20
44705;DHT22;30431;48.520;9.046;2023-09-19T16:06:41;21.50;65.80
44705;DHT22;30431;48.520;9.046;2023-09-19T16:09:08;21.40;65.00
44705;DHT22;30431;48.520;9.046;2023-09-19T16:11:37;21.30;64.80
44705;DHT22;30431;48.520;9.046;2023-09-19T16:14:06;21.30;67.50
44705;DHT22;30431;48.520;9.046;2023-09-19T16:16:34;21.40;69.10
44705;DHT22;30431;48.520;9.046;2023-09-19T16:19:04;21.40;66.40
44705;DHT22;30431;48.520;9.046;2023-09-19T16:21:37;21.40;66.80
44705;DHT22;30431;48.520;9.046;2023-09-19T16:24:04;21.40;66.80
44705;DHT22;30431;48.520;9.046;2023-09-19T16:26:36;21.30;65.20
44705;DHT22;30431;48.520;9.046;2023-09-19T16:29:04;21.20;66.30
44705;DHT22;30431;48.520;9.046;2023-09-19T16:31:31;21.20;66.00
44705;DHT22;30431;48.520;9.046;2023-09-19T16:34:00;21.20;67.10
44705;DHT22;30431;48.520;9.046;2023-09-19T16:36:28;21.10;66.70
44705;DHT22;30431;48.520;9.046;2023-09-19T16:38:58;21.00;66.90